sensor_id;sensor_type;location;lat;lon;timestamp;P1;durP1;ratioP1;P2;durP2;ratioP2
55678;SDS011;41573;51.446;-2.018;2023-05-15T00:02:17;12.40;;;3.92;;
55678;SDS011;41573;51.446;-2.018;2023-05-15T00:04:42;5.57;;;2.95;;
55678;SDS011;41573;51.446;-2.018;2023-05-15T00:07:30;5.60;;;2.75;;
55678;SDS011;41573;51.446;-2.018;2023-05-15T00:09:56;6.00;;;2.45;;
55678;SDS011;41573;51.446;-2.018;2023-05-15T00:12:22;7.68;;;3.00;;
55678;SDS011;41573;51.446;-2.018;2023-05-15T00:14:47;5.93;;;2.38;;
55678;SDS011;41573;51.446;-2.018;2023-05-15T00:17:13;7.30;;;3.15;;
55678;SDS011;41573;51.446;-2.018;2023-05-15T00:29:53;3.90;;;2.05;;
55678;SDS011;41573;51.446;-2.018;2023-05-15T00:32:19;4.38;;;1.73;;
55678;SDS011;41573;51.446;-2.018;2023-05-15T00:34:44;2.70;;;1.88;;
55678;SDS011;41573;51.446;-2.018;2023-05-15T00:37:22;4.10;;;1.90;;
55678;SDS011;41573;51.446;-2.018;2023-05-15T00:39:47;3.20;;;1.85;;
55678;SDS011;41573;51.446;-2.018;2023-05-15T00:42:13;2.78;;;1.80;;
55678;SDS011;41573;51.446;-2.018;2023-05-15T00:44:39;2.70;;;1.50;;
55678;SDS011;41573;51.446;-2.018;2023-05-15T00:47:08;3.17;;;1.85;;
55678;SDS011;41573;51.446;-2.018;2023-05-15T00:49:34;2.35;;;1.48;;
55678;SDS011;41573;51.446;-2.018;2023-05-15T00:52:01;2.63;;;1.40;;
55678;SDS011;41573;51.446;-2.018;2023-05-15T00:54:32;2.28;;;1.30;;
55678;SDS011;41573;51.446;-2.018;2023-05-15T00:56:58;2.85;;;2.03;;
55678;SDS011;41573;51.446;-2.018;2023-05-15T00:59:27;2.55;;;1.45;;
55678;SDS011;41573;51.446;-2.018;2023-05-15T01:01:54;1.67;;;1.27;;
55678;SDS011;41573;51.446;-2.018;2023-05-15T01:04:20;3.80;;;1.40;;
55678;SDS011;41573;51.446;-2.018;2023-05-15T01:06:45;8.38;;;1.17;;
55678;SDS011;41573;51.446;-2.018;2023-05-15T01:09:22;1.88;;;1.30;;
55678;SDS011;41573;51.446;-2.018;2023-05-15T05:41:13;3.90;;;0.88;;
55678;SDS011;41573;51.446;-2.018;2023-05-15T05:44:03;1.95;;;0.73;;
55678;SDS011;41573;51.446;-2.018;2023-05-15T06:56:14;1.45;;;0.75;;
55678;SDS011;41573;51.446;-2.018;2023-05-15T06:58:39;2.90;;;1.00;;
55678;SDS011;41573;51.446;-2.018;2023-05-15T07:01:04;1.60;;;0.80;;
55678;SDS011;41573;51.446;-2.018;2023-05-15T07:03:31;2.63;;;1.10;;
55678;SDS011;41573;51.446;-2.018;2023-05-15T07:05:57;1.02;;;0.60;;
55678;SDS011;41573;51.446;-2.018;2023-05-15T07:08:22;1.63;;;0.52;;
55678;SDS011;41573;51.446;-2.018;2023-05-15T07:10:48;0.95;;;0.60;;
55678;SDS011;41573;51.446;-2.018;2023-05-15T07:13:15;3.25;;;1.70;;
55678;SDS011;41573;51.446;-2.018;2023-05-15T07:15:41;5.47;;;1.27;;
55678;SDS011;41573;51.446;-2.018;2023-05-15T07:18:07;0.50;;;0.50;;
55678;SDS011;41573;51.446;-2.018;2023-05-15T07:20:32;0.60;;;0.45;;
55678;SDS011;41573;51.446;-2.018;2023-05-15T07:22:58;2.80;;;0.77;;
55678;SDS011;41573;51.446;-2.018;2023-05-15T07:25:24;2.28;;;0.95;;
55678;SDS011;41573;51.446;-2.018;2023-05-15T07:27:50;1.90;;;0.75;;
55678;SDS011;41573;51.446;-2.018;2023-05-15T07:30:15;3.92;;;0.98;;
55678;SDS011;41573;51.446;-2.018;2023-05-15T07:32:44;0.45;;;0.45;;
55678;SDS011;41573;51.446;-2.018;2023-05-15T07:35:10;1.08;;;0.47;;
55678;SDS011;41573;51.446;-2.018;2023-05-15T07:37:35;3.35;;;0.88;;
55678;SDS011;41573;51.446;-2.018;2023-05-15T07:40:01;0.88;;;0.80;;
55678;SDS011;41573;51.446;-2.018;2023-05-15T07:42:28;4.20;;;1.10;;
55678;SDS011;41573;51.446;-2.018;2023-05-15T07:44:53;4.82;;;0.90;;
55678;SDS011;41573;51.446;-2.018;2023-05-15T07:47:19;3.67;;;1.75;;
55678;SDS011;41573;51.446;-2.018;2023-05-15T07:49:44;7.78;;;1.10;;
55678;SDS011;41573;51.446;-2.018;2023-05-15T07:52:10;1.65;;;0.68;;
55678;SDS011;41573;51.446;-2.018;2023-05-15T07:54:37;3.70;;;0.93;;
55678;SDS011;41573;51.446;-2.018;2023-05-15T07:57:05;1.85;;;0.85;;
55678;SDS011;41573;51.446;-2.018;2023-05-15T07:59:31;3.17;;;0.80;;
55678;SDS011;41573;51.446;-2.018;2023-05-15T08:01:56;0.75;;;0.70;;
55678;SDS011;41573;51.446;-2.018;2023-05-15T08:04:21;0.40;;;0.40;;
55678;SDS011;41573;51.446;-2.018;2023-05-15T08:06:47;1.20;;;0.75;;
55678;SDS011;41573;51.446;-2.018;2023-05-15T08:09:16;2.22;;;0.73;;
55678;SDS011;41573;51.446;-2.018;2023-05-15T08:11:45;3.55;;;1.10;;
55678;SDS011;41573;51.446;-2.018;2023-05-15T08:14:11;1.23;;;0.80;;
55678;SDS011;41573;51.446;-2.018;2023-05-15T08:16:37;2.28;;;1.13;;
55678;SDS011;41573;51.446;-2.018;2023-05-15T08:19:02;3.58;;;0.98;;
55678;SDS011;41573;51.446;-2.018;2023-05-15T08:21:30;1.30;;;0.80;;
55678;SDS011;41573;51.446;-2.018;2023-05-15T08:23:56;0.73;;;0.73;;
55678;SDS011;41573;51.446;-2.018;2023-05-15T08:26:22;1.92;;;0.90;;
55678;SDS011;41573;51.446;-2.018;2023-05-15T08:28:48;2.30;;;0.98;;
55678;SDS011;41573;51.446;-2.018;2023-05-15T08:31:13;0.70;;;0.70;;
55678;SDS011;41573;51.446;-2.018;2023-05-15T08:33:39;0.60;;;0.60;;
55678;SDS011;41573;51.446;-2.018;2023-05-15T08:36:06;1.15;;;0.73;;
55678;SDS011;41573;51.446;-2.018;2023-05-15T08:38:32;1.15;;;0.82;;
55678;SDS011;41573;51.446;-2.018;2023-05-15T08:41:01;1.02;;;0.80;;
55678;SDS011;41573;51.446;-2.018;2023-05-15T08:43:48;2.88;;;0.90;;
55678;SDS011;41573;51.446;-2.018;2023-05-15T08:46:17;0.70;;;0.70;;
55678;SDS011;41573;51.446;-2.018;2023-05-15T08:48:43;1.45;;;0.52;;
55678;SDS011;41573;51.446;-2.018;2023-05-15T08:51:09;1.17;;;0.95;;
55678;SDS011;41573;51.446;-2.018;2023-05-15T08:53:35;7.68;;;1.55;;
55678;SDS011;41573;51.446;-2.018;2023-05-15T08:56:01;3.35;;;1.17;;
55678;SDS011;41573;51.446;-2.018;2023-05-15T08:58:27;3.63;;;0.90;;
55678;SDS011;41573;51.446;-2.018;2023-05-15T09:00:53;4.90;;;1.05;;
55678;SDS011;41573;51.446;-2.018;2023-05-15T09:03:19;1.50;;;0.70;;
55678;SDS011;41573;51.446;-2.018;2023-05-15T09:05:47;2.08;;;1.00;;
55678;SDS011;41573;51.446;-2.018;2023-05-15T09:08:16;1.90;;;0.80;;
55678;SDS011;41573;51.446;-2.018;2023-05-15T09:10:43;2.08;;;0.77;;
55678;SDS011;41573;51.446;-2.018;2023-05-15T09:13:09;2.15;;;0.75;;
55678;SDS011;41573;51.446;-2.018;2023-05-15T09:15:37;5.38;;;0.88;;
55678;SDS011;41573;51.446;-2.018;2023-05-15T09:18:02;3.88;;;0.68;;
55678;SDS011;41573;51.446;-2.018;2023-05-15T09:20:34;2.83;;;0.60;;
55678;SDS011;41573;51.446;-2.018;2023-05-15T09:23:02;0.40;;;0.40;;
55678;SDS011;41573;51.446;-2.018;2023-05-15T09:25:32;3.20;;;0.88;;
55678;SDS011;41573;51.446;-2.018;2023-05-15T09:27:59;2.97;;;1.02;;
55678;SDS011;41573;51.446;-2.018;2023-05-15T09:30:25;0.47;;;0.47;;
55678;SDS011;41573;51.446;-2.018;2023-05-15T09:32:52;0.57;;;0.55;;
55678;SDS011;41573;51.446;-2.018;2023-05-15T09:35:36;1.83;;;1.33;;
55678;SDS011;41573;51.446;-2.018;2023-05-15T09:38:07;1.33;;;0.90;;
55678;SDS011;41573;51.446;-2.018;2023-05-15T09:43:10;0.65;;;0.57;;
55678;SDS011;41573;51.446;-2.018;2023-05-15T09:45:36;1.17;;;1.00;;
55678;SDS011;41573;51.446;-2.018;2023-05-15T09:48:05;1.52;;;0.90;;
55678;SDS011;41573;51.446;-2.018;2023-05-15T09:50:35;2.08;;;1.00;;
55678;SDS011;41573;51.446;-2.018;2023-05-15T09:53:02;0.70;;;0.68;;
55678;SDS011;41573;51.446;-2.018;2023-05-15T09:55:32;0.90;;;0.77;;
55678;SDS011;41573;51.446;-2.018;2023-05-15T10:00:30;2.85;;;0.95;;
55678;SDS011;41573;51.446;-2.018;2023-05-15T10:03:00;2.22;;;1.45;;
55678;SDS011;41573;51.446;-2.018;2023-05-15T10:05:27;0.80;;;0.70;;
55678;SDS011;41573;51.446;-2.018;2023-05-15T10:07:53;2.85;;;0.70;;
55678;SDS011;41573;51.446;-2.018;2023-05-15T10:10:20;2.95;;;0.77;;
55678;SDS011;41573;51.446;-2.018;2023-05-15T10:12:46;0.73;;;0.65;;
55678;SDS011;41573;51.446;-2.018;2023-05-15T10:15:12;0.98;;;0.70;;
55678;SDS011;41573;51.446;-2.018;2023-05-15T10:17:38;1.05;;;0.90;;
55678;SDS011;41573;51.446;-2.018;2023-05-15T10:20:06;2.38;;;0.70;;
55678;SDS011;41573;51.446;-2.018;2023-05-15T10:22:35;6.07;;;0.90;;
55678;SDS011;41573;51.446;-2.018;2023-05-15T10:27:40;1.95;;;1.08;;
55678;SDS011;41573;51.446;-2.018;2023-05-15T10:30:08;0.50;;;0.43;;
55678;SDS011;41573;51.446;-2.018;2023-05-15T10:32:36;1.98;;;0.82;;
55678;SDS011;41573;51.446;-2.018;2023-05-15T10:35:03;0.98;;;0.70;;
55678;SDS011;41573;51.446;-2.018;2023-05-15T10:37:29;1.55;;;0.63;;
55678;SDS011;41573;51.446;-2.018;2023-05-15T10:39:56;0.90;;;0.70;;
55678;SDS011;41573;51.446;-2.018;2023-05-15T10:42:23;3.13;;;1.17;;
55678;SDS011;41573;51.446;-2.018;2023-05-15T10:44:50;0.50;;;0.50;;
55678;SDS011;41573;51.446;-2.018;2023-05-15T10:47:17;0.50;;;0.50;;
55678;SDS011;41573;51.446;-2.018;2023-05-15T10:49:43;1.35;;;0.63;;
55678;SDS011;41573;51.446;-2.018;2023-05-15T10:52:08;0.98;;;0.93;;
55678;SDS011;41573;51.446;-2.018;2023-05-15T10:54:34;0.55;;;0.38;;
55678;SDS011;41573;51.446;-2.018;2023-05-15T10:56:59;1.55;;;0.88;;
55678;SDS011;41573;51.446;-2.018;2023-05-15T10:59:33;3.08;;;0.85;;
55678;SDS011;41573;51.446;-2.018;2023-05-15T11:04:57;0.80;;;0.50;;
55678;SDS011;41573;51.446;-2.018;2023-05-15T11:07:24;1.30;;;1.02;;
55678;SDS011;41573;51.446;-2.018;2023-05-15T11:09:50;1.30;;;0.80;;
55678;SDS011;41573;51.446;-2.018;2023-05-15T11:12:16;1.25;;;0.70;;
55678;SDS011;41573;51.446;-2.018;2023-05-15T11:14:43;0.82;;;0.63;;
55678;SDS011;41573;51.446;-2.018;2023-05-15T11:17:30;4.47;;;0.63;;
55678;SDS011;41573;51.446;-2.018;2023-05-15T11:19:57;0.90;;;0.60;;
55678;SDS011;41573;51.446;-2.018;2023-05-15T11:24:56;1.85;;;0.80;;
55678;SDS011;41573;51.446;-2.018;2023-05-15T11:27:25;2.33;;;0.85;;
55678;SDS011;41573;51.446;-2.018;2023-05-15T11:32:39;1.27;;;0.80;;
55678;SDS011;41573;51.446;-2.018;2023-05-15T11:40:32;1.90;;;0.60;;
55678;SDS011;41573;51.446;-2.018;2023-05-15T11:45:49;1.52;;;1.00;;
55678;SDS011;41573;51.446;-2.018;2023-05-15T11:48:20;0.85;;;0.68;;
55678;SDS011;41573;51.446;-2.018;2023-05-15T11:50:47;2.35;;;0.70;;
55678;SDS011;41573;51.446;-2.018;2023-05-15T11:53:13;1.30;;;0.85;;
55678;SDS011;41573;51.446;-2.018;2023-05-15T11:55:40;1.27;;;0.85;;
55678;SDS011;41573;51.446;-2.018;2023-05-15T11:58:15;1.70;;;0.80;;
55678;SDS011;41573;51.446;-2.018;2023-05-15T12:00:41;0.82;;;0.75;;
55678;SDS011;41573;51.446;-2.018;2023-05-15T12:05:47;0.75;;;0.70;;
55678;SDS011;41573;51.446;-2.018;2023-05-15T12:08:13;0.43;;;0.40;;
55678;SDS011;41573;51.446;-2.018;2023-05-15T12:10:48;0.75;;;0.68;;
55678;SDS011;41573;51.446;-2.018;2023-05-15T12:13:14;0.40;;;0.40;;
55678;SDS011;41573;51.446;-2.018;2023-05-15T12:15:45;1.75;;;0.77;;
55678;SDS011;41573;51.446;-2.018;2023-05-15T12:18:11;0.82;;;0.68;;
55678;SDS011;41573;51.446;-2.018;2023-05-15T12:20:39;1.25;;;0.55;;
55678;SDS011;41573;51.446;-2.018;2023-05-15T12:23:08;0.57;;;0.57;;
55678;SDS011;41573;51.446;-2.018;2023-05-15T12:25:34;0.50;;;0.50;;
55678;SDS011;41573;51.446;-2.018;2023-05-15T12:28:01;0.60;;;0.57;;
55678;SDS011;41573;51.446;-2.018;2023-05-15T12:30:31;1.88;;;0.40;;
55678;SDS011;41573;51.446;-2.018;2023-05-15T12:33:02;0.75;;;0.38;;
55678;SDS011;41573;51.446;-2.018;2023-05-15T12:35:29;14.52;;;1.02;;
55678;SDS011;41573;51.446;-2.018;2023-05-15T12:37:58;1.15;;;0.43;;
55678;SDS011;41573;51.446;-2.018;2023-05-15T12:40:24;0.50;;;0.50;;
55678;SDS011;41573;51.446;-2.018;2023-05-15T12:42:50;0.43;;;0.40;;
55678;SDS011;41573;51.446;-2.018;2023-05-15T12:45:18;1.67;;;0.77;;
55678;SDS011;41573;51.446;-2.018;2023-05-15T12:47:46;0.60;;;0.38;;
55678;SDS011;41573;51.446;-2.018;2023-05-15T12:52:45;0.40;;;0.40;;
55678;SDS011;41573;51.446;-2.018;2023-05-15T12:55:15;0.80;;;0.57;;
55678;SDS011;41573;51.446;-2.018;2023-05-15T12:57:42;0.68;;;0.55;;
55678;SDS011;41573;51.446;-2.018;2023-05-15T13:00:11;1.25;;;0.47;;
55678;SDS011;41573;51.446;-2.018;2023-05-15T13:02:38;0.68;;;0.50;;
55678;SDS011;41573;51.446;-2.018;2023-05-15T13:05:07;0.43;;;0.43;;
55678;SDS011;41573;51.446;-2.018;2023-05-15T13:07:33;0.50;;;0.50;;
55678;SDS011;41573;51.446;-2.018;2023-05-15T13:10:05;1.83;;;0.40;;
55678;SDS011;41573;51.446;-2.018;2023-05-15T13:12:34;0.80;;;0.65;;
55678;SDS011;41573;51.446;-2.018;2023-05-15T13:15:23;2.03;;;0.57;;
55678;SDS011;41573;51.446;-2.018;2023-05-15T13:18:13;0.50;;;0.30;;
55678;SDS011;41573;51.446;-2.018;2023-05-15T13:20:40;0.43;;;0.35;;
55678;SDS011;41573;51.446;-2.018;2023-05-15T13:23:06;0.60;;;0.60;;
55678;SDS011;41573;51.446;-2.018;2023-05-15T13:25:32;1.58;;;0.63;;
55678;SDS011;41573;51.446;-2.018;2023-05-15T13:27:59;1.65;;;0.47;;
55678;SDS011;41573;51.446;-2.018;2023-05-15T13:30:27;0.50;;;0.40;;
55678;SDS011;41573;51.446;-2.018;2023-05-15T13:32:53;1.70;;;0.68;;
55678;SDS011;41573;51.446;-2.018;2023-05-15T13:35:19;3.17;;;0.85;;
55678;SDS011;41573;51.446;-2.018;2023-05-15T13:37:44;0.52;;;0.52;;
55678;SDS011;41573;51.446;-2.018;2023-05-15T13:40:10;0.68;;;0.55;;
55678;SDS011;41573;51.446;-2.018;2023-05-15T13:42:37;0.65;;;0.55;;
55678;SDS011;41573;51.446;-2.018;2023-05-15T13:45:04;1.77;;;0.57;;
55678;SDS011;41573;51.446;-2.018;2023-05-15T13:47:31;2.05;;;0.68;;
55678;SDS011;41573;51.446;-2.018;2023-05-15T13:49:56;0.63;;;0.60;;
55678;SDS011;41573;51.446;-2.018;2023-05-15T13:52:22;0.40;;;0.40;;
55678;SDS011;41573;51.446;-2.018;2023-05-15T13:54:47;2.30;;;0.52;;
55678;SDS011;41573;51.446;-2.018;2023-05-15T13:57:13;0.70;;;0.52;;
55678;SDS011;41573;51.446;-2.018;2023-05-15T13:59:38;2.47;;;0.75;;
55678;SDS011;41573;51.446;-2.018;2023-05-15T14:02:03;1.10;;;0.75;;
55678;SDS011;41573;51.446;-2.018;2023-05-15T14:04:29;0.50;;;0.45;;
55678;SDS011;41573;51.446;-2.018;2023-05-15T14:06:54;2.80;;;0.65;;
55678;SDS011;41573;51.446;-2.018;2023-05-15T14:09:20;2.88;;;1.00;;
55678;SDS011;41573;51.446;-2.018;2023-05-15T14:11:45;2.38;;;0.47;;
55678;SDS011;41573;51.446;-2.018;2023-05-15T14:14:11;1.30;;;0.85;;
55678;SDS011;41573;51.446;-2.018;2023-05-15T14:16:36;0.75;;;0.55;;
55678;SDS011;41573;51.446;-2.018;2023-05-15T14:19:02;0.65;;;0.50;;
55678;SDS011;41573;51.446;-2.018;2023-05-15T14:21:27;1.02;;;0.70;;
55678;SDS011;41573;51.446;-2.018;2023-05-15T14:23:52;0.50;;;0.50;;
55678;SDS011;41573;51.446;-2.018;2023-05-15T14:26:18;0.57;;;0.50;;
55678;SDS011;41573;51.446;-2.018;2023-05-15T14:28:43;0.50;;;0.47;;
55678;SDS011;41573;51.446;-2.018;2023-05-15T14:31:09;0.40;;;0.40;;
55678;SDS011;41573;51.446;-2.018;2023-05-15T14:33:35;0.50;;;0.50;;
55678;SDS011;41573;51.446;-2.018;2023-05-15T14:36:01;0.20;;;0.20;;
55678;SDS011;41573;51.446;-2.018;2023-05-15T14:38:28;0.30;;;0.30;;
55678;SDS011;41573;51.446;-2.018;2023-05-15T14:40:53;0.55;;;0.50;;
55678;SDS011;41573;51.446;-2.018;2023-05-15T14:43:19;0.47;;;0.47;;
55678;SDS011;41573;51.446;-2.018;2023-05-15T14:45:44;0.80;;;0.45;;
55678;SDS011;41573;51.446;-2.018;2023-05-15T14:48:10;0.60;;;0.52;;
55678;SDS011;41573;51.446;-2.018;2023-05-15T14:50:35;0.75;;;0.75;;
55678;SDS011;41573;51.446;-2.018;2023-05-15T14:53:01;0.75;;;0.50;;
55678;SDS011;41573;51.446;-2.018;2023-05-15T14:55:26;0.60;;;0.43;;
55678;SDS011;41573;51.446;-2.018;2023-05-15T14:57:52;0.82;;;0.40;;
55678;SDS011;41573;51.446;-2.018;2023-05-15T15:00:17;1.30;;;0.40;;
55678;SDS011;41573;51.446;-2.018;2023-05-15T15:02:42;1.17;;;0.60;;
55678;SDS011;41573;51.446;-2.018;2023-05-15T15:05:08;0.60;;;0.60;;
55678;SDS011;41573;51.446;-2.018;2023-05-15T15:10:22;0.20;;;0.20;;
55678;SDS011;41573;51.446;-2.018;2023-05-15T15:12:49;0.30;;;0.30;;
55678;SDS011;41573;51.446;-2.018;2023-05-15T15:15:15;1.08;;;0.55;;
55678;SDS011;41573;51.446;-2.018;2023-05-15T15:17:41;0.55;;;0.40;;
55678;SDS011;41573;51.446;-2.018;2023-05-15T15:20:07;0.30;;;0.30;;
55678;SDS011;41573;51.446;-2.018;2023-05-15T15:22:33;0.88;;;0.60;;
55678;SDS011;41573;51.446;-2.018;2023-05-15T15:24:59;0.73;;;0.40;;
55678;SDS011;41573;51.446;-2.018;2023-05-15T15:27:25;0.50;;;0.40;;
55678;SDS011;41573;51.446;-2.018;2023-05-15T15:29:50;0.50;;;0.50;;
55678;SDS011;41573;51.446;-2.018;2023-05-15T15:32:16;2.60;;;0.70;;
55678;SDS011;41573;51.446;-2.018;2023-05-15T15:34:41;2.50;;;0.47;;
55678;SDS011;41573;51.446;-2.018;2023-05-15T15:37:06;0.55;;;0.40;;
55678;SDS011;41573;51.446;-2.018;2023-05-15T15:39:32;0.30;;;0.30;;
55678;SDS011;41573;51.446;-2.018;2023-05-15T15:41:57;1.15;;;0.63;;
55678;SDS011;41573;51.446;-2.018;2023-05-15T15:44:23;0.40;;;0.40;;
55678;SDS011;41573;51.446;-2.018;2023-05-15T15:46:48;0.77;;;0.50;;
55678;SDS011;41573;51.446;-2.018;2023-05-15T15:49:14;0.40;;;0.40;;
55678;SDS011;41573;51.446;-2.018;2023-05-15T15:51:39;0.43;;;0.40;;
55678;SDS011;41573;51.446;-2.018;2023-05-15T15:54:07;1.83;;;0.43;;
55678;SDS011;41573;51.446;-2.018;2023-05-15T15:56:33;1.17;;;0.50;;
55678;SDS011;41573;51.446;-2.018;2023-05-15T15:58:58;0.45;;;0.43;;
55678;SDS011;41573;51.446;-2.018;2023-05-15T16:01:24;0.50;;;0.30;;
55678;SDS011;41573;51.446;-2.018;2023-05-15T16:03:49;0.32;;;0.32;;
55678;SDS011;41573;51.446;-2.018;2023-05-15T16:06:15;0.32;;;0.30;;
55678;SDS011;41573;51.446;-2.018;2023-05-15T16:08:40;0.75;;;0.30;;
55678;SDS011;41573;51.446;-2.018;2023-05-15T16:11:06;1.52;;;0.30;;
55678;SDS011;41573;51.446;-2.018;2023-05-15T16:13:31;0.38;;;0.25;;
55678;SDS011;41573;51.446;-2.018;2023-05-15T16:15:56;2.17;;;0.70;;
55678;SDS011;41573;51.446;-2.018;2023-05-15T16:18:22;0.57;;;0.43;;
55678;SDS011;41573;51.446;-2.018;2023-05-15T16:20:47;0.60;;;0.40;;
55678;SDS011;41573;51.446;-2.018;2023-05-15T16:23:13;2.13;;;0.40;;
55678;SDS011;41573;51.446;-2.018;2023-05-15T16:25:40;0.82;;;0.60;;
55678;SDS011;41573;51.446;-2.018;2023-05-15T16:28:06;0.30;;;0.30;;
55678;SDS011;41573;51.446;-2.018;2023-05-15T16:30:31;0.55;;;0.40;;
55678;SDS011;41573;51.446;-2.018;2023-05-15T16:32:57;0.30;;;0.20;;
55678;SDS011;41573;51.446;-2.018;2023-05-15T16:35:23;1.83;;;0.45;;
55678;SDS011;41573;51.446;-2.018;2023-05-15T16:37:49;0.35;;;0.35;;
55678;SDS011;41573;51.446;-2.018;2023-05-15T16:40:15;0.75;;;0.40;;
55678;SDS011;41573;51.446;-2.018;2023-05-15T16:42:40;0.47;;;0.30;;
55678;SDS011;41573;51.446;-2.018;2023-05-15T16:45:05;0.88;;;0.40;;
55678;SDS011;41573;51.446;-2.018;2023-05-15T16:47:31;0.65;;;0.32;;
55678;SDS011;41573;51.446;-2.018;2023-05-15T16:49:57;1.00;;;0.32;;
55678;SDS011;41573;51.446;-2.018;2023-05-15T16:52:23;0.52;;;0.52;;
55678;SDS011;41573;51.446;-2.018;2023-05-15T16:54:49;0.60;;;0.52;;
55678;SDS011;41573;51.446;-2.018;2023-05-15T16:57:14;1.67;;;0.55;;
55678;SDS011;41573;51.446;-2.018;2023-05-15T16:59:40;1.05;;;0.80;;
55678;SDS011;41573;51.446;-2.018;2023-05-15T17:02:05;0.28;;;0.22;;
55678;SDS011;41573;51.446;-2.018;2023-05-15T17:04:30;0.93;;;0.68;;
55678;SDS011;41573;51.446;-2.018;2023-05-15T17:06:59;3.08;;;0.60;;
55678;SDS011;41573;51.446;-2.018;2023-05-15T17:09:24;1.55;;;0.40;;
55678;SDS011;41573;51.446;-2.018;2023-05-15T17:11:50;1.90;;;0.40;;
55678;SDS011;41573;51.446;-2.018;2023-05-15T17:14:15;0.60;;;0.30;;
55678;SDS011;41573;51.446;-2.018;2023-05-15T17:16:41;0.20;;;0.20;;
55678;SDS011;41573;51.446;-2.018;2023-05-15T17:19:07;0.73;;;0.45;;
55678;SDS011;41573;51.446;-2.018;2023-05-15T17:21:33;2.03;;;0.63;;
55678;SDS011;41573;51.446;-2.018;2023-05-15T17:24:01;2.55;;;0.52;;
55678;SDS011;41573;51.446;-2.018;2023-05-15T17:26:26;1.20;;;0.60;;
55678;SDS011;41573;51.446;-2.018;2023-05-15T17:28:52;1.00;;;0.60;;
55678;SDS011;41573;51.446;-2.018;2023-05-15T17:31:17;1.52;;;0.60;;
55678;SDS011;41573;51.446;-2.018;2023-05-15T17:33:43;0.70;;;0.40;;
55678;SDS011;41573;51.446;-2.018;2023-05-15T17:36:09;2.10;;;0.47;;
55678;SDS011;41573;51.446;-2.018;2023-05-15T17:38:34;1.45;;;0.60;;
55678;SDS011;41573;51.446;-2.018;2023-05-15T17:40:59;0.30;;;0.30;;
55678;SDS011;41573;51.446;-2.018;2023-05-15T17:43:25;2.13;;;0.28;;
55678;SDS011;41573;51.446;-2.018;2023-05-15T17:45:50;0.70;;;0.40;;
55678;SDS011;41573;51.446;-2.018;2023-05-15T17:48:16;0.30;;;0.30;;
55678;SDS011;41573;51.446;-2.018;2023-05-15T17:50:41;0.40;;;0.40;;
55678;SDS011;41573;51.446;-2.018;2023-05-15T17:53:07;0.30;;;0.30;;
55678;SDS011;41573;51.446;-2.018;2023-05-15T17:55:32;0.28;;;0.28;;
55678;SDS011;41573;51.446;-2.018;2023-05-15T17:57:58;0.95;;;0.88;;
55678;SDS011;41573;51.446;-2.018;2023-05-15T18:00:23;0.45;;;0.45;;
55678;SDS011;41573;51.446;-2.018;2023-05-15T18:02:48;1.80;;;0.30;;
55678;SDS011;41573;51.446;-2.018;2023-05-15T18:05:14;0.30;;;0.30;;
55678;SDS011;41573;51.446;-2.018;2023-05-15T18:07:39;3.33;;;0.40;;
55678;SDS011;41573;51.446;-2.018;2023-05-15T18:10:06;0.82;;;0.73;;
55678;SDS011;41573;51.446;-2.018;2023-05-15T18:12:32;1.17;;;0.65;;
55678;SDS011;41573;51.446;-2.018;2023-05-15T18:14:59;0.40;;;0.40;;
55678;SDS011;41573;51.446;-2.018;2023-05-15T18:17:24;0.47;;;0.40;;
55678;SDS011;41573;51.446;-2.018;2023-05-15T18:19:50;0.35;;;0.35;;
55678;SDS011;41573;51.446;-2.018;2023-05-15T18:22:15;0.52;;;0.30;;
55678;SDS011;41573;51.446;-2.018;2023-05-15T18:24:40;5.40;;;0.70;;
55678;SDS011;41573;51.446;-2.018;2023-05-15T18:27:06;1.15;;;0.38;;
55678;SDS011;41573;51.446;-2.018;2023-05-15T18:29:31;0.90;;;0.52;;
55678;SDS011;41573;51.446;-2.018;2023-05-15T18:31:57;0.43;;;0.40;;
55678;SDS011;41573;51.446;-2.018;2023-05-15T18:34:22;0.30;;;0.30;;
55678;SDS011;41573;51.446;-2.018;2023-05-15T18:36:47;0.35;;;0.35;;
55678;SDS011;41573;51.446;-2.018;2023-05-15T18:39:16;1.17;;;0.43;;
55678;SDS011;41573;51.446;-2.018;2023-05-15T18:41:42;0.22;;;0.22;;
55678;SDS011;41573;51.446;-2.018;2023-05-15T18:44:07;0.20;;;0.20;;
55678;SDS011;41573;51.446;-2.018;2023-05-15T18:46:33;2.33;;;0.40;;
55678;SDS011;41573;51.446;-2.018;2023-05-15T18:48:58;0.73;;;0.40;;
55678;SDS011;41573;51.446;-2.018;2023-05-15T18:51:24;0.98;;;0.43;;
55678;SDS011;41573;51.446;-2.018;2023-05-15T18:53:49;0.30;;;0.30;;
55678;SDS011;41573;51.446;-2.018;2023-05-15T18:56:15;1.67;;;0.40;;
55678;SDS011;41573;51.446;-2.018;2023-05-15T18:58:41;0.25;;;0.25;;
55678;SDS011;41573;51.446;-2.018;2023-05-15T19:01:06;0.52;;;0.50;;
55678;SDS011;41573;51.446;-2.018;2023-05-15T19:03:32;0.47;;;0.40;;
55678;SDS011;41573;51.446;-2.018;2023-05-15T19:05:59;0.20;;;0.20;;
55678;SDS011;41573;51.446;-2.018;2023-05-15T19:08:25;4.03;;;1.00;;
55678;SDS011;41573;51.446;-2.018;2023-05-15T19:10:50;1.65;;;0.35;;
55678;SDS011;41573;51.446;-2.018;2023-05-15T19:13:16;0.30;;;0.30;;
55678;SDS011;41573;51.446;-2.018;2023-05-15T19:15:52;2.15;;;0.40;;
55678;SDS011;41573;51.446;-2.018;2023-05-15T19:18:18;0.30;;;0.30;;
55678;SDS011;41573;51.446;-2.018;2023-05-15T19:20:45;1.50;;;0.40;;
55678;SDS011;41573;51.446;-2.018;2023-05-15T19:23:13;0.85;;;0.40;;
55678;SDS011;41573;51.446;-2.018;2023-05-15T19:25:39;1.38;;;0.43;;
55678;SDS011;41573;51.446;-2.018;2023-05-15T19:28:04;1.10;;;0.65;;
55678;SDS011;41573;51.446;-2.018;2023-05-15T19:30:30;0.50;;;0.50;;
55678;SDS011;41573;51.446;-2.018;2023-05-15T19:32:56;0.50;;;0.50;;
55678;SDS011;41573;51.446;-2.018;2023-05-15T19:35:21;1.27;;;0.47;;
55678;SDS011;41573;51.446;-2.018;2023-05-15T19:37:46;0.65;;;0.50;;
55678;SDS011;41573;51.446;-2.018;2023-05-15T19:40:12;0.60;;;0.40;;
55678;SDS011;41573;51.446;-2.018;2023-05-15T19:42:37;0.98;;;0.52;;
55678;SDS011;41573;51.446;-2.018;2023-05-15T19:45:03;0.57;;;0.50;;
55678;SDS011;41573;51.446;-2.018;2023-05-15T19:47:29;0.60;;;0.60;;
55678;SDS011;41573;51.446;-2.018;2023-05-15T19:49:54;0.38;;;0.38;;
55678;SDS011;41573;51.446;-2.018;2023-05-15T19:52:19;0.40;;;0.40;;
55678;SDS011;41573;51.446;-2.018;2023-05-15T19:54:45;1.45;;;0.68;;
55678;SDS011;41573;51.446;-2.018;2023-05-15T19:57:10;0.57;;;0.40;;
55678;SDS011;41573;51.446;-2.018;2023-05-15T19:59:36;0.35;;;0.35;;
55678;SDS011;41573;51.446;-2.018;2023-05-15T20:02:01;0.88;;;0.77;;
55678;SDS011;41573;51.446;-2.018;2023-05-15T20:04:27;1.92;;;0.70;;
55678;SDS011;41573;51.446;-2.018;2023-05-15T20:06:52;2.03;;;0.40;;
55678;SDS011;41573;51.446;-2.018;2023-05-15T20:09:18;1.08;;;0.47;;
55678;SDS011;41573;51.446;-2.018;2023-05-15T20:11:44;1.17;;;0.50;;
55678;SDS011;41573;51.446;-2.018;2023-05-15T20:14:09;0.32;;;0.30;;
55678;SDS011;41573;51.446;-2.018;2023-05-15T20:16:35;0.45;;;0.40;;
55678;SDS011;41573;51.446;-2.018;2023-05-15T20:19:00;0.77;;;0.60;;
55678;SDS011;41573;51.446;-2.018;2023-05-15T20:21:26;0.40;;;0.40;;
55678;SDS011;41573;51.446;-2.018;2023-05-15T20:23:51;0.52;;;0.38;;
55678;SDS011;41573;51.446;-2.018;2023-05-15T20:26:17;2.17;;;0.60;;
55678;SDS011;41573;51.446;-2.018;2023-05-15T20:28:43;0.52;;;0.43;;
55678;SDS011;41573;51.446;-2.018;2023-05-15T20:31:08;1.15;;;0.82;;
55678;SDS011;41573;51.446;-2.018;2023-05-15T20:33:34;0.52;;;0.50;;
55678;SDS011;41573;51.446;-2.018;2023-05-15T20:35:59;2.78;;;0.75;;
55678;SDS011;41573;51.446;-2.018;2023-05-15T20:38:26;2.05;;;0.70;;
55678;SDS011;41573;51.446;-2.018;2023-05-15T20:40:52;2.13;;;1.13;;
55678;SDS011;41573;51.446;-2.018;2023-05-15T20:43:18;0.93;;;0.93;;
55678;SDS011;41573;51.446;-2.018;2023-05-15T20:45:43;4.75;;;0.60;;
55678;SDS011;41573;51.446;-2.018;2023-05-15T20:48:09;0.90;;;0.65;;
55678;SDS011;41573;51.446;-2.018;2023-05-15T20:50:35;2.15;;;0.80;;
55678;SDS011;41573;51.446;-2.018;2023-05-15T20:53:01;2.70;;;0.70;;